createdAt,value
2023-02-22T00:01:19.396Z,4.68
2023-02-22T00:06:43.197Z,3.63
2023-02-22T00:12:10.225Z,4.97
2023-02-22T00:17:34.169Z,5.53
2023-02-22T00:22:58.030Z,5.35
2023-02-22T00:28:24.541Z,6.55
2023-02-22T00:33:48.715Z,6.50
2023-02-22T00:39:14.227Z,6.72
2023-02-22T00:44:39.364Z,6.32
2023-02-22T00:50:03.201Z,5.32
2023-02-22T00:55:29.162Z,5.85
2023-02-22T01:00:54.358Z,8.10
2023-02-22T01:06:18.133Z,7.28
2023-02-22T01:11:42.433Z,3.88
2023-02-22T01:17:07.624Z,6.35
2023-02-22T01:22:31.884Z,5.80
2023-02-22T01:27:57.041Z,5.82
2023-02-22T01:33:22.296Z,6.18
2023-02-22T01:38:46.352Z,5.95
2023-02-22T01:44:21.877Z,6.88
2023-02-22T01:49:51.164Z,8.73
2023-02-22T01:55:15.093Z,5.72
2023-02-22T02:00:40.011Z,7.13
2023-02-22T02:06:11.897Z,10.60
2023-02-22T02:17:01.500Z,7.13
2023-02-22T02:22:42.816Z,7.53
2023-02-22T02:28:49.920Z,9.80
2023-02-22T02:34:22.639Z,7.22
2023-02-22T02:39:54.790Z,6.28
2023-02-22T02:45:24.077Z,8.07
2023-02-22T02:50:50.755Z,6.80
2023-02-22T02:56:14.501Z,6.57
2023-02-22T03:01:51.600Z,9.18
2023-02-22T03:07:29.180Z,8.73
2023-02-22T03:13:01.865Z,7.53
2023-02-22T03:18:30.124Z,5.63
2023-02-22T03:24:05.308Z,5.10
2023-02-22T03:29:31.144Z,5.82
2023-02-22T03:34:59.293Z,7.50
2023-02-22T03:40:32.316Z,6.40
2023-02-22T03:45:56.512Z,7.82
2023-02-22T03:51:21.139Z,6.22
2023-02-22T03:56:55.474Z,7.10
2023-02-22T04:02:19.715Z,8.00
2023-02-22T04:07:44.653Z,8.18
2023-02-22T04:13:11.380Z,7.78
2023-02-22T04:18:39.928Z,6.40
2023-02-22T04:24:03.846Z,5.32
2023-02-22T04:29:30.425Z,6.30
2023-02-22T04:34:54.330Z,7.15
2023-02-22T04:40:18.931Z,7.03
2023-02-22T04:45:45.772Z,7.03
2023-02-22T04:51:10.207Z,8.30
2023-02-22T04:56:37.709Z,9.25
2023-02-22T05:02:04.224Z,10.27
2023-02-22T05:07:27.996Z,7.88
2023-02-22T05:12:51.893Z,10.27
2023-02-22T05:18:17.369Z,13.25
2023-02-22T05:23:41.679Z,9.93
2023-02-22T05:29:05.571Z,11.20
2023-02-22T05:34:30.886Z,11.25
2023-02-22T05:39:55.766Z,13.02
2023-02-22T05:45:21.074Z,11.20
2023-02-22T05:50:46.177Z,11.50
2023-02-22T05:56:10.073Z,14.02
2023-02-22T06:01:33.891Z,11.57
2023-02-22T06:06:59.061Z,13.23
2023-02-22T06:12:22.835Z,11.50
2023-02-22T06:17:46.945Z,14.40
2023-02-22T06:23:12.210Z,11.38
2023-02-22T06:28:35.903Z,16.45
2023-02-22T06:33:59.642Z,14.23
2023-02-22T06:39:25.672Z,15.27
2023-02-22T06:44:51.513Z,10.48
2023-02-22T06:50:21.826Z,24.25
2023-02-22T06:55:46.950Z,15.77
2023-02-22T07:01:10.746Z,14.43
2023-02-22T07:06:34.608Z,14.27
2023-02-22T07:11:59.760Z,11.77
2023-02-22T07:17:23.512Z,11.07
2023-02-22T07:22:47.482Z,14.32
2023-02-22T07:28:12.668Z,16.17
2023-02-22T07:33:36.609Z,14.80
2023-02-22T07:39:00.468Z,14.05
2023-02-22T07:44:25.602Z,20.92
2023-02-22T07:49:49.351Z,12.70
2023-02-22T07:55:13.279Z,11.68
2023-02-22T08:00:40.344Z,12.55
2023-02-22T08:06:04.897Z,11.93
2023-02-22T08:11:28.678Z,13.43
2023-02-22T08:16:53.860Z,10.07
2023-02-22T08:22:17.830Z,9.90
2023-02-22T08:27:41.538Z,10.60
2023-02-22T08:33:07.226Z,9.45
2023-02-22T08:38:33.999Z,9.30
2023-02-22T08:44:03.607Z,9.75
2023-02-22T08:49:28.733Z,10.98
2023-02-22T08:54:52.549Z,10.15
2023-02-22T09:00:17.739Z,20.60
2023-02-22T09:05:43.452Z,7.03
2023-02-22T09:11:07.494Z,11.25
2023-02-22T09:16:32.216Z,9.43
2023-02-22T09:21:59.914Z,8.80
2023-02-22T09:27:23.746Z,6.78
2023-02-22T09:32:47.730Z,10.10
2023-02-22T09:38:15.589Z,9.55
2023-02-22T09:43:46.011Z,7.85
2023-02-22T09:49:20.595Z,7.88
2023-02-22T09:54:51.891Z,6.95
2023-02-22T10:00:20.088Z,7.13
2023-02-22T10:05:47.079Z,6.57
2023-02-22T10:11:22.819Z,8.30
2023-02-22T10:16:53.414Z,8.48
2023-02-22T10:22:40.362Z,7.03
2023-02-22T10:28:14.620Z,8.63
2023-02-22T10:33:43.451Z,13.90
2023-02-22T10:39:27.149Z,11.38
2023-02-22T10:44:52.306Z,11.13
2023-02-22T10:50:16.838Z,13.48
2023-02-22T10:56:11.726Z,12.10
2023-02-22T11:01:40.894Z,15.27
2023-02-22T11:07:22.011Z,16.08
2023-02-22T11:18:25.569Z,10.35
2023-02-22T11:23:50.777Z,14.60
2023-02-22T11:29:20.821Z,13.20
2023-02-22T11:34:46.086Z,13.23
2023-02-22T11:40:18.303Z,13.23
2023-02-22T11:46:02.156Z,13.40
2023-02-22T11:51:37.825Z,15.93
2023-02-22T11:57:17.206Z,14.77
2023-02-22T12:02:57.348Z,17.83
2023-02-22T12:08:29.787Z,14.52
2023-02-22T12:14:05.758Z,11.63
2023-02-22T12:19:36.155Z,13.00
2023-02-22T12:25:09.929Z,12.38
2023-02-22T12:30:39.267Z,13.93
2023-02-22T12:36:03.539Z,12.52
2023-02-22T12:41:35.371Z,10.27
2023-02-22T12:47:01.553Z,15.60
2023-02-22T12:52:41.297Z,9.38
2023-02-22T12:58:15.843Z,12.18
2023-02-22T13:03:42.196Z,21.73
2023-02-22T13:09:18.116Z,14.57
2023-02-22T13:14:53.202Z,11.02
2023-02-22T13:20:20.010Z,13.52
2023-02-22T13:25:50.236Z,11.68
2023-02-22T13:31:27.861Z,12.93
2023-02-22T13:37:06.160Z,12.73
2023-02-22T13:42:52.751Z,6.03
2023-02-22T13:48:35.630Z,6.45
2023-02-22T13:54:04.604Z,3.95
2023-02-22T13:59:32.733Z,3.80
2023-02-22T14:04:59.025Z,6.30
2023-02-22T14:10:46.327Z,5.32
2023-02-22T14:16:22.874Z,6.68
2023-02-22T14:22:02.779Z,3.92
2023-02-22T14:27:39.751Z,3.85
2023-02-22T14:33:04.022Z,4.03
2023-02-22T14:38:29.780Z,4.60
2023-02-22T14:43:55.124Z,4.13
2023-02-22T14:49:22.289Z,3.70
2023-02-22T14:54:59.686Z,4.22
2023-02-22T15:00:31.158Z,5.28
2023-02-22T15:05:54.974Z,3.33
2023-02-22T15:11:26.412Z,4.30
2023-02-22T15:16:53.129Z,4.65
2023-02-22T15:22:22.840Z,9.52
2023-02-22T15:27:48.181Z,26.35
2023-02-22T15:33:16.357Z,4.30
2023-02-22T15:38:40.388Z,6.45
2023-02-22T15:44:22.677Z,6.10
2023-02-22T15:49:47.361Z,4.13
2023-02-22T15:55:12.467Z,4.28
2023-02-22T16:00:39.639Z,6.85
2023-02-22T16:06:09.819Z,4.85
2023-02-22T16:11:38.513Z,5.73
2023-02-22T16:17:35.484Z,12.77
2023-02-22T16:22:59.582Z,5.60
2023-02-22T16:28:30.778Z,5.85
2023-02-22T16:39:27.268Z,10.18
2023-02-22T16:44:54.730Z,15.98
2023-02-22T16:50:20.357Z,15.50
2023-02-22T16:55:44.797Z,8.27
2023-02-22T17:01:09.472Z,9.43
2023-02-22T17:06:34.840Z,10.48
2023-02-22T17:11:58.630Z,12.20
2023-02-22T17:17:22.823Z,9.65
2023-02-22T17:22:55.053Z,15.32
2023-02-22T17:28:19.136Z,16.10
2023-02-22T17:33:43.941Z,33.03
2023-02-22T17:39:10.613Z,26.20
2023-02-22T17:44:35.354Z,31.17
2023-02-22T17:49:59.193Z,29.08
2023-02-22T17:55:24.532Z,26.15
2023-02-22T18:00:50.382Z,24.65
2023-02-22T18:06:23.164Z,22.70
2023-02-22T18:11:49.692Z,21.13
2023-02-22T18:17:13.465Z,15.15
2023-02-22T18:22:37.282Z,21.33
2023-02-22T18:28:02.856Z,17.48
2023-02-22T18:33:27.740Z,17.45
2023-02-22T18:38:53.254Z,16.13
2023-02-22T18:44:19.346Z,21.67
2023-02-22T18:49:43.679Z,22.38
2023-02-22T18:55:08.809Z,15.68
2023-02-22T19:00:41.023Z,19.70
2023-02-22T19:06:08.730Z,18.50
2023-02-22T19:11:33.300Z,28.85
2023-02-22T19:17:01.511Z,23.75
2023-02-22T19:22:26.264Z,20.95
2023-02-22T19:27:51.445Z,24.77
2023-02-22T19:33:16.769Z,23.95
2023-02-22T19:38:40.921Z,25.38
2023-02-22T19:44:06.420Z,19.15
2023-02-22T19:49:31.708Z,18.88
2023-02-22T19:54:55.569Z,24.40
2023-02-22T20:00:24.504Z,18.55
2023-02-22T20:05:49.687Z,17.83
2023-02-22T20:11:14.270Z,22.83
2023-02-22T20:16:38.468Z,25.92
2023-02-22T20:22:03.786Z,19.63
2023-02-22T20:27:27.600Z,22.25
2023-02-22T20:32:51.680Z,24.80
2023-02-22T20:38:19.398Z,20.08
2023-02-22T20:43:43.724Z,18.48
2023-02-22T20:49:11.157Z,22.25
2023-02-22T20:54:38.061Z,29.80
2023-02-22T21:00:01.932Z,24.50
2023-02-22T21:05:25.872Z,25.65
2023-02-22T21:10:51.056Z,23.58
2023-02-22T21:16:18.514Z,20.55
2023-02-22T21:21:42.339Z,24.98
2023-02-22T21:27:08.732Z,22.00
2023-02-22T21:32:32.927Z,24.38
2023-02-22T21:37:57.272Z,22.10
2023-02-22T21:43:25.119Z,19.52
2023-02-22T21:48:49.468Z,16.88
2023-02-22T21:54:13.801Z,22.02
2023-02-22T21:59:39.469Z,20.42
2023-02-22T22:05:03.449Z,20.08
2023-02-22T22:10:29.420Z,23.40
2023-02-22T22:15:55.149Z,17.02
2023-02-22T22:21:21.066Z,21.20
2023-02-22T22:26:45.167Z,19.98
2023-02-22T22:32:10.825Z,21.25
2023-02-22T22:37:34.721Z,18.27
2023-02-22T22:42:58.573Z,20.98
2023-02-22T22:48:36.098Z,16.23
2023-02-22T22:54:00.366Z,25.33
2023-02-22T22:59:24.106Z,20.48
2023-02-22T23:04:52.268Z,16.98
2023-02-22T23:10:16.122Z,22.05
2023-02-22T23:15:43.366Z,20.15
2023-02-22T23:21:08.463Z,17.67
2023-02-22T23:26:32.782Z,24.23
2023-02-22T23:31:56.869Z,18.67
2023-02-22T23:37:22.238Z,17.15
2023-02-22T23:42:50.007Z,14.40
2023-02-22T23:48:13.789Z,21.70
2023-02-22T23:53:43.962Z,17.58
2023-02-22T23:59:12.570Z,20.02
